Time;durP1;ratioP1;P1;durP2;ratioP2;P2;SDS_P1;SDS_P2;PMS_P1;PMS_P2;Temp;Humidity;BMP_temperature;BMP_pressure;BME280_temperature;BME280_humidity;BME280_pressure;Samples;Min_cycle;Max_cycle;Signal;HPM_P1;HPM_P2
2022/08/26 00:01:15;;;;;;;30.92;24.85;;;21.30;99.90;;;;;;5139112;27;20078;-65
2022/08/26 00:03:44;;;;;;;31.65;27.92;;;21.20;99.90;;;;;;5131946;27;20858;-65
2022/08/26 00:06:11;;;;;;;35.13;26.38;;;21.20;99.90;;;;;;5118028;27;20055;-66
2022/08/26 00:08:38;;;;;;;31.02;26.23;;;21.20;99.90;;;;;;5136724;27;20059;-65
2022/08/26 00:11:05;;;;;;;30.10;24.45;;;21.20;99.90;;;;;;5135888;27;20054;-65
2022/08/26 00:13:33;;;;;;;28.98;21.75;;;21.10;99.90;;;;;;5136045;27;20179;-65
2022/08/26 00:16:00;;;;;;;28.23;21.23;;;21.10;99.90;;;;;;5118173;27;20398;-64
2022/08/26 00:18:27;;;;;;;28.95;21.77;;;21.10;99.90;;;;;;5136002;27;20051;-64
2022/08/26 00:20:55;;;;;;;27.50;21.05;;;21.20;99.90;;;;;;5121490;27;20043;-64
2022/08/26 00:23:22;;;;;;;28.27;20.88;;;21.20;99.90;;;;;;5157238;27;20050;-64
2022/08/26 00:25:49;;;;;;;27.52;19.23;;;21.20;99.90;;;;;;5156168;27;20103;-64
2022/08/26 00:28:16;;;;;;;27.10;18.23;;;21.20;99.90;;;;;;5157379;27;20074;-64
2022/08/26 00:30:46;;;;;;;23.40;17.98;;;21.30;99.90;;;;;;5138543;27;20058;-64
2022/08/26 00:33:13;;;;;;;;;;;21.30;99.90;;;;;;5156622;27;20050;-64
2022/08/26 00:35:40;;;;;;;23.52;16.90;;;21.40;99.90;;;;;;5152640;27;19923;-64
2022/08/26 00:38:08;;;;;;;22.83;16.85;;;21.30;99.90;;;;;;5136371;27;20437;-64
2022/08/26 00:40:38;;;;;;;23.85;17.73;;;21.40;99.90;;;;;;5135289;27;20116;-64
2022/08/26 00:43:06;;;;;;;34.70;17.20;;;21.40;99.90;;;;;;5136441;27;20051;-63
2022/08/26 00:45:38;;;;;;;25.60;16.92;;;21.40;99.90;;;;;;5116539;27;20103;-64
2022/08/26 00:48:07;;;;;;;29.58;18.33;;;21.40;99.90;;;;;;5117628;27;20051;-64
2022/08/26 00:50:37;;;;;;;25.88;17.00;;;21.50;99.90;;;;;;5122053;27;20047;-64
2022/08/26 00:53:20;;;;;;;27.73;16.87;;;21.50;99.90;;;;;;5156300;27;20059;-64
2022/08/26 00:55:52;;;;;;;26.80;16.48;;;21.50;99.90;;;;;;5137636;27;20486;-64
2022/08/26 00:58:20;;;;;;;29.05;17.05;;;21.50;99.90;;;;;;5156624;27;20053;-65
2022/08/26 01:00:47;;;;;;;26.25;17.25;;;21.50;99.90;;;;;;5155771;27;20053;-64
2022/08/26 01:03:16;;;;;;;23.00;17.42;;;21.50;99.90;;;;;;5150575;27;20050;-63
2022/08/26 01:05:43;;;;;;;28.35;17.75;;;21.60;99.90;;;;;;5116621;27;20092;-64
2022/08/26 01:08:10;;;;;;;26.33;17.33;;;21.50;99.90;;;;;;5134702;27;20165;-63
2022/08/26 01:10:37;;;;;;;23.70;16.55;;;21.50;99.90;;;;;;5116989;27;20055;-64
2022/08/26 01:13:09;;;;;;;32.72;17.27;;;21.50;99.90;;;;;;5135210;27;20059;-65
2022/08/26 01:15:43;;;;;;;28.17;17.15;;;21.50;99.90;;;;;;5115723;27;20130;-65
2022/08/26 01:18:12;;;;;;;26.98;17.90;;;21.50;99.90;;;;;;5116950;27;20567;-65
2022/08/26 01:20:50;;;;;;;27.33;15.90;;;21.40;99.90;;;;;;5116846;27;20399;-65
2022/08/26 01:23:19;;;;;;;22.92;15.75;;;21.40;99.90;;;;;;5117011;27;20569;-65
2022/08/26 01:25:50;;;;;;;28.05;16.02;;;21.30;99.90;;;;;;5134949;27;20047;-65
2022/08/26 01:28:22;;;;;;;26.13;17.50;;;21.30;99.90;;;;;;5116532;27;20051;-65
2022/08/26 01:30:51;;;;;;;26.80;16.23;;;21.30;99.90;;;;;;5136915;27;20104;-65
2022/08/26 01:33:22;;;;;;;27.65;18.25;;;21.30;99.90;;;;;;5135344;27;20062;-65
2022/08/26 01:35:50;;;;;;;28.75;18.48;;;21.30;99.90;;;;;;5134282;27;20067;-65
2022/08/26 01:38:18;;;;;;;26.42;16.70;;;21.30;99.90;;;;;;5134777;27;20142;-64
2022/08/26 01:40:46;;;;;;;31.75;17.15;;;21.30;99.90;;;;;;5135866;27;20047;-64
2022/08/26 01:43:17;;;;;;;24.60;16.50;;;21.30;99.90;;;;;;5115844;27;20047;-65
2022/08/26 01:45:45;;;;;;;28.50;17.20;;;21.30;99.90;;;;;;5126001;27;20058;-65
2022/08/26 01:48:17;;;;;;;23.38;15.93;;;21.30;99.90;;;;;;5137078;27;20103;-65
2022/08/26 01:50:45;;;;;;;34.65;17.90;;;21.30;99.90;;;;;;5135678;27;20469;-64
2022/08/26 01:53:17;;;;;;;26.98;17.85;;;21.30;99.90;;;;;;5137309;27;20073;-65
2022/08/26 01:55:50;;;;;;;30.95;17.00;;;21.30;99.90;;;;;;5155290;27;20157;-65
2022/08/26 01:58:22;;;;;;;26.70;17.38;;;21.20;99.90;;;;;;5154415;27;20443;-65
2022/08/26 02:00:50;;;;;;;29.88;16.58;;;21.20;99.90;;;;;;5136878;27;20061;-65
2022/08/26 02:03:20;;;;;;;26.00;16.17;;;21.20;99.90;;;;;;5147181;27;20051;-66
2022/08/26 02:05:53;;;;;;;26.98;16.25;;;21.30;99.90;;;;;;5133875;27;20079;-64
2022/08/26 02:08:24;;;;;;;28.05;17.52;;;21.30;99.90;;;;;;5134735;27;20073;-65
2022/08/26 02:10:52;;;;;;;30.23;17.25;;;21.30;99.90;;;;;;5133806;27;20520;-65
2022/08/26 02:13:19;;;;;;;24.15;17.05;;;21.30;99.90;;;;;;5133990;27;20051;-64
2022/08/26 02:15:47;;;;;;;26.40;17.58;;;21.30;99.90;;;;;;5143768;27;20043;-65
2022/08/26 02:18:14;;;;;;;32.22;16.52;;;21.30;99.90;;;;;;5154164;27;20083;-65
2022/08/26 02:20:41;;;;;;;27.05;17.38;;;21.30;99.90;;;;;;5136586;27;20046;-65
2022/08/26 02:23:08;;;;;;;27.00;17.45;;;21.30;99.90;;;;;;5154919;27;20099;-65
2022/08/26 02:25:44;;;;;;;29.92;17.67;;;21.30;99.90;;;;;;5153900;27;20043;-64
2022/08/26 02:28:13;;;;;;;33.70;18.48;;;21.30;99.90;;;;;;5154988;27;20082;-65
2022/08/26 02:30:41;;;;;;;27.98;17.40;;;21.30;99.90;;;;;;5143408;27;20093;-65
2022/08/26 02:33:08;;;;;;;33.83;17.35;;;21.30;99.90;;;;;;5114817;28;20053;-65
2022/08/26 02:35:37;;;;;;;26.38;16.30;;;21.30;99.90;;;;;;5115589;27;20089;-65
2022/08/26 02:38:05;;;;;;;28.30;16.88;;;21.30;99.90;;;;;;5134090;27;20548;-64
2022/08/26 02:40:36;;;;;;;29.20;17.55;;;21.30;99.90;;;;;;5115660;28;20058;-65
2022/08/26 02:43:04;;;;;;;31.27;18.13;;;21.30;99.90;;;;;;5115660;28;20402;-64
2022/08/26 02:45:32;;;;;;;29.38;18.25;;;21.30;99.90;;;;;;5114866;28;20056;-64
2022/08/26 02:47:59;;;;;;;30.25;17.60;;;21.30;99.90;;;;;;5114798;28;20043;-65
2022/08/26 02:50:27;;;;;;;25.05;16.08;;;21.30;99.90;;;;;;5134077;28;20047;-64
2022/08/26 02:52:55;;;;;;;29.50;16.05;;;21.40;99.90;;;;;;5133414;28;20099;-65
2022/08/26 02:55:22;;;;;;;27.38;16.80;;;21.30;99.90;;;;;;5114863;28;20051;-64
2022/08/26 02:57:49;;;;;;;27.55;15.90;;;21.30;99.90;;;;;;5115752;28;20063;-65
2022/08/26 03:00:16;;;;;;;24.55;15.85;;;21.30;99.90;;;;;;5125996;27;20054;-65
2022/08/26 03:02:44;;;;;;;29.33;14.75;;;21.30;99.90;;;;;;5135884;27;20051;-65
2022/08/26 03:05:12;;;;;;;27.83;15.82;;;21.30;99.90;;;;;;5154517;27;20424;-66
2022/08/26 03:07:39;;;;;;;23.15;14.55;;;21.30;99.90;;;;;;5135174;27;20055;-65
2022/08/26 03:10:07;;;;;;;25.30;14.18;;;21.30;99.90;;;;;;5137862;27;20055;-65
2022/08/26 03:12:34;;;;;;;25.65;14.18;;;21.30;99.90;;;;;;5137571;27;20058;-65
2022/08/26 03:15:01;;;;;;;26.70;12.98;;;21.30;99.90;;;;;;5118515;27;20056;-64
2022/08/26 03:17:29;;;;;;;26.40;13.75;;;21.30;99.90;;;;;;5137818;27;20055;-65
2022/08/26 03:19:58;;;;;;;22.02;12.73;;;21.30;99.90;;;;;;5137769;27;20083;-65
2022/08/26 03:22:25;;;;;;;26.60;14.00;;;21.30;99.90;;;;;;5136789;27;20104;-64
2022/08/26 03:24:52;;;;;;;26.50;14.07;;;21.30;99.90;;;;;;5118932;27;20047;-65
2022/08/26 03:27:19;;;;;;;24.95;13.75;;;21.30;99.90;;;;;;5137360;27;20051;-65
2022/08/26 03:32:30;;;;;;;21.02;13.80;;;21.30;99.90;;;;;;5137525;27;20387;-65
2022/08/26 03:34:58;;;;;;;26.25;12.95;;;21.30;99.90;;;;;;5136693;27;20039;-65
2022/08/26 03:37:25;;;;;;;19.75;11.50;;;21.30;99.90;;;;;;5118858;27;20107;-65
2022/08/26 03:39:51;;;;;;;30.60;12.15;;;21.30;99.90;;;;;;5119101;27;20051;-65
2022/08/26 03:42:18;;;;;;;22.48;13.00;;;21.30;99.90;;;;;;5118143;27;20111;-66
2022/08/26 03:44:45;;;;;;;23.02;11.95;;;21.30;99.90;;;;;;5137440;27;20701;-65
2022/08/26 03:47:12;;;;;;;26.00;11.60;;;21.30;99.90;;;;;;5118726;27;20096;-65
2022/08/26 03:49:40;;;;;;;23.05;10.85;;;21.30;99.90;;;;;;5136268;27;20047;-65
2022/08/26 03:52:09;;;;;;;21.27;11.63;;;21.20;99.90;;;;;;5139398;27;20055;-65
2022/08/26 03:54:36;;;;;;;16.73;10.77;;;21.20;99.90;;;;;;5157486;27;20106;-64
2022/08/26 03:57:03;;;;;;;28.92;13.77;;;21.20;99.90;;;;;;5156632;27;20532;-64
2022/08/26 03:59:30;;;;;;;19.77;11.07;;;21.20;99.90;;;;;;5157348;27;20042;-64
2022/08/26 04:01:57;;;;;;;22.83;12.23;;;21.10;99.90;;;;;;5157521;27;20087;-65
2022/08/26 04:04:23;;;;;;;20.40;12.15;;;21.10;99.90;;;;;;5156641;27;20050;-65
2022/08/26 04:06:57;;;;;;;19.98;11.93;;;21.10;99.90;;;;;;5157220;27;20494;-65
2022/08/26 04:09:26;;;;;;;17.10;10.70;;;21.10;99.90;;;;;;5157816;27;20053;-65
2022/08/26 04:11:54;;;;;;;19.60;10.25;;;21.10;99.90;;;;;;5156453;27;20411;-65
2022/08/26 04:14:24;;;;;;;19.70;11.13;;;21.10;99.90;;;;;;5157152;27;20384;-64
2022/08/26 04:16:52;;;;;;;19.23;10.02;;;21.10;99.90;;;;;;5137804;27;20050;-64
2022/08/26 04:19:20;;;;;;;18.25;9.82;;;21.00;99.90;;;;;;5156785;27;20046;-65
2022/08/26 04:21:49;;;;;;;19.65;10.43;;;21.00;99.90;;;;;;5156370;27;20466;-65
2022/08/26 04:24:16;;;;;;;24.45;11.63;;;21.00;99.90;;;;;;5138167;27;20051;-65
2022/08/26 04:26:45;;;;;;;22.17;11.50;;;21.00;99.90;;;;;;5156906;27;20088;-65
2022/08/26 04:29:14;;;;;;;17.05;10.45;;;21.00;99.90;;;;;;5138835;27;20514;-64
2022/08/26 04:31:41;;;;;;;18.73;11.50;;;21.00;99.90;;;;;;5153499;27;20039;-64
2022/08/26 04:34:08;;;;;;;18.00;9.40;;;21.00;99.90;;;;;;5150981;27;20482;-64
2022/08/26 04:36:36;;;;;;;17.10;9.38;;;21.00;99.90;;;;;;5148512;27;20039;-64
2022/08/26 04:39:04;;;;;;;20.00;9.80;;;21.10;99.90;;;;;;5127975;27;20043;-64
2022/08/26 04:41:31;;;;;;;17.95;11.13;;;21.20;99.90;;;;;;5142373;27;20050;-64
2022/08/26 04:44:00;;;;;;;19.98;11.52;;;21.30;99.90;;;;;;5130344;27;20054;-65
2022/08/26 04:46:28;;;;;;;19.87;10.87;;;21.40;99.90;;;;;;5149160;27;20496;-65
2022/08/26 04:48:54;;;;;;;20.38;11.32;;;21.30;99.90;;;;;;5147240;27;20043;-64
2022/08/26 04:51:26;;;;;;;20.58;10.38;;;21.40;99.90;;;;;;5119122;27;20119;-64
2022/08/26 04:53:53;;;;;;;17.67;10.35;;;21.40;99.90;;;;;;5126203;27;20147;-64
2022/08/26 04:56:20;;;;;;;21.55;10.27;;;21.40;99.90;;;;;;5129441;27;20550;-65
2022/08/26 04:58:48;;;;;;;19.58;9.63;;;21.40;99.90;;;;;;5150599;27;20051;-65
2022/08/26 05:01:17;;;;;;;15.90;8.43;;;21.50;99.90;;;;;;5144124;27;20047;-65
2022/08/26 05:03:44;;;;;;;13.80;8.32;;;21.60;99.90;;;;;;5135403;27;20058;-64
2022/08/26 05:06:11;;;;;;;21.85;10.25;;;21.70;99.90;;;;;;5149364;27;20050;-64
2022/08/26 05:08:38;;;;;;;19.65;10.88;;;21.60;99.90;;;;;;5147718;27;20125;-63
2022/08/26 05:11:06;;;;;;;19.42;9.32;;;21.60;99.90;;;;;;5148079;27;20047;-63
2022/08/26 05:13:34;;;;;;;21.25;9.10;;;21.70;99.90;;;;;;5142014;27;20100;-64
2022/08/26 05:16:03;;;;;;;15.18;8.60;;;21.70;99.90;;;;;;5147941;27;20049;-64
2022/08/26 05:18:32;;;;;;;18.77;10.20;;;21.70;99.90;;;;;;5131966;27;20129;-65
2022/08/26 05:21:02;;;;;;;20.35;11.00;;;21.70;99.90;;;;;;5144947;27;20058;-64
2022/08/26 05:23:30;;;;;;;17.15;10.35;;;21.70;99.90;;;;;;5127268;27;20051;-64
2022/08/26 05:25:59;;;;;;;18.73;10.88;;;21.70;99.90;;;;;;5144470;27;20039;-64
2022/08/26 05:28:27;;;;;;;18.40;10.05;;;21.90;99.90;;;;;;5143068;27;20054;-65
2022/08/26 05:30:54;;;;;;;17.27;9.45;;;21.90;99.90;;;;;;5146801;27;20043;-64
2022/08/26 05:33:22;;;;;;;18.00;10.15;;;21.90;99.90;;;;;;5125659;27;20118;-65
2022/08/26 05:35:50;;;;;;;17.70;9.52;;;22.00;99.90;;;;;;5146378;27;20066;-65
2022/08/26 05:38:20;;;;;;;14.20;9.10;;;22.00;99.90;;;;;;5125637;27;20086;-65
2022/08/26 05:40:50;;;;;;;13.57;8.25;;;21.90;99.90;;;;;;5142222;27;20452;-65
2022/08/26 05:43:18;;;;;;;18.33;9.75;;;21.90;99.90;;;;;;5124316;27;20566;-64
2022/08/26 05:45:47;;;;;;;16.83;9.00;;;21.90;99.90;;;;;;5130915;27;20091;-65
2022/08/26 05:48:15;;;;;;;14.48;7.57;;;22.00;99.90;;;;;;5137858;27;20509;-65
2022/08/26 05:50:44;;;;;;;15.00;8.20;;;22.00;99.90;;;;;;5144499;27;20119;-65
2022/08/26 05:53:15;;;;;;;14.07;7.90;;;22.00;99.90;;;;;;5146104;27;20047;-65
2022/08/26 05:55:43;;;;;;;17.55;8.60;;;22.00;99.90;;;;;;5117126;27;20427;-64
2022/08/26 05:58:10;;;;;;;14.73;7.07;;;22.10;99.90;;;;;;5148527;27;20137;-64
2022/08/26 06:00:37;;;;;;;15.73;7.38;;;22.20;99.90;;;;;;5136539;27;20047;-65
2022/08/26 06:03:04;;;;;;;16.15;7.20;;;22.30;99.90;;;;;;5135636;27;20051;-65
2022/08/26 06:05:31;;;;;;;13.27;7.20;;;22.30;99.90;;;;;;5143043;27;20447;-65
2022/08/26 06:08:13;;;;;;;14.98;6.60;;;22.30;99.90;;;;;;5144675;27;20042;-65
2022/08/26 06:10:46;;;;;;;16.50;6.10;;;22.40;99.90;;;;;;5139868;27;20554;-65
2022/08/26 06:13:15;;;;;;;14.25;6.68;;;22.40;99.90;;;;;;5145995;27;20154;-64
2022/08/26 06:15:44;;;;;;;18.90;6.15;;;22.40;99.90;;;;;;5144289;27;20394;-65
2022/08/26 06:18:13;;;;;;;16.58;6.60;;;22.40;99.90;;;;;;5126389;27;20126;-64
2022/08/26 06:20:42;;;;;;;11.35;5.32;;;22.40;99.90;;;;;;5139282;27;20043;-65
2022/08/26 06:25:56;;;;;;;10.90;5.03;;;22.50;99.90;;;;;;5147128;27;20042;-65
2022/08/26 06:28:26;;;;;;;13.88;5.55;;;22.50;99.90;;;;;;5124438;27;20102;-64
2022/08/26 06:30:53;;;;;;;9.27;6.07;;;22.60;99.90;;;;;;5133513;27;20095;-65
2022/08/26 06:33:20;;;;;;;13.02;5.43;;;22.50;99.90;;;;;;5124995;27;20483;-65
2022/08/26 06:35:49;;;;;;;12.70;5.40;;;22.60;99.90;;;;;;5126242;27;20050;-64
2022/08/26 06:38:16;;;;;;;13.68;5.47;;;22.60;99.90;;;;;;5146830;27;20053;-65
2022/08/26 06:40:47;;;;;;;10.70;5.07;;;22.50;99.90;;;;;;5125987;27;20099;-66
2022/08/26 06:43:16;;;;;;;10.45;4.97;;;22.60;99.90;;;;;;5143184;27;20054;-65
2022/08/26 06:45:44;;;;;;;9.75;4.80;;;22.50;99.90;;;;;;5137763;27;20388;-65
2022/08/26 06:48:12;;;;;;;18.45;4.95;;;22.40;99.90;;;;;;5123099;27;20062;-66
2022/08/26 06:50:40;;;;;;;11.98;5.28;;;22.30;99.90;;;;;;5142203;27;20043;-66
2022/08/26 06:53:07;;;;;;;11.65;5.07;;;22.30;99.90;;;;;;5126140;27;20043;-66
2022/08/26 06:55:39;;;;;;;14.65;4.88;;;22.20;99.90;;;;;;5122845;27;20047;-65
2022/08/26 06:58:06;;;;;;;13.30;4.95;;;22.20;99.90;;;;;;5128850;27;20452;-64
2022/08/26 07:00:35;;;;;;;13.48;5.65;;;22.20;99.90;;;;;;5116031;27;20107;-65
2022/08/26 07:03:02;;;;;;;13.48;5.07;;;22.20;99.90;;;;;;5123513;27;20043;-64
2022/08/26 07:05:29;;;;;;;16.00;5.22;;;22.20;99.90;;;;;;5145618;27;20095;-65
2022/08/26 07:07:56;;;;;;;11.65;4.75;;;22.20;99.90;;;;;;5125793;27;20043;-65
2022/08/26 07:10:23;;;;;;;18.50;5.57;;;22.20;99.90;;;;;;5142853;27;20054;-65
2022/08/26 07:12:51;;;;;;;11.90;4.47;;;22.30;99.90;;;;;;5124861;27;20550;-65
2022/08/26 07:15:18;;;;;;;13.85;4.60;;;22.30;99.90;;;;;;5125671;27;20486;-65
2022/08/26 07:17:46;;;;;;;9.10;4.28;;;22.30;99.90;;;;;;5144297;27;20422;-65
2022/08/26 07:20:14;;;;;;;13.02;4.00;;;22.40;99.90;;;;;;5123207;27;20050;-65
2022/08/26 07:22:40;;;;;;;12.80;4.32;;;22.40;99.90;;;;;;5143922;27;20051;-65
2022/08/26 07:25:09;;;;;;;11.50;4.60;;;22.50;99.90;;;;;;5122761;27;20348;-65
2022/08/26 07:27:36;;;;;;;11.07;4.30;;;22.50;99.90;;;;;;5127085;27;20066;-64
2022/08/26 07:30:05;;;;;;;11.02;3.85;;;22.50;99.90;;;;;;5118599;27;20055;-64
2022/08/26 07:32:32;;;;;;;7.63;3.20;;;22.60;99.90;;;;;;5148584;27;20043;-65
2022/08/26 07:35:00;;;;;;;11.48;3.50;;;22.70;99.90;;;;;;5123561;27;20055;-65
2022/08/26 07:37:27;;;;;;;12.75;4.15;;;22.70;99.90;;;;;;5125067;27;20091;-65
2022/08/26 07:39:54;;;;;;;9.52;4.45;;;22.60;99.90;;;;;;5119342;27;20544;-65
2022/08/26 07:42:21;;;;;;;9.50;3.53;;;22.70;99.90;;;;;;5145450;27;20051;-65
2022/08/26 07:44:48;;;;;;;10.90;2.65;;;22.70;99.90;;;;;;5147846;27;20043;-65
2022/08/26 07:47:16;;;;;;;11.43;2.85;;;22.70;99.90;;;;;;5140819;27;20082;-64
2022/08/26 07:49:43;;;;;;;15.15;4.35;;;22.70;99.90;;;;;;5127979;27;20444;-64
2022/08/26 07:52:12;;;;;;;9.57;2.83;;;22.70;99.90;;;;;;5124217;27;20494;-64
2022/08/26 07:54:39;;;;;;;15.18;2.90;;;22.60;99.90;;;;;;5144619;27;20114;-64
2022/08/26 07:57:06;;;;;;;8.73;3.05;;;22.60;99.90;;;;;;5145993;27;20126;-64
2022/08/26 07:59:33;;;;;;;13.20;2.88;;;22.70;99.90;;;;;;5148680;27;20043;-64
2022/08/26 08:02:00;;;;;;;14.48;3.60;;;22.80;99.90;;;;;;5148021;27;20490;-64
2022/08/26 08:04:27;;;;;;;8.25;2.35;;;23.00;99.90;;;;;;5130887;27;20107;-64
2022/08/26 08:06:55;;;;;;;12.38;3.20;;;23.10;99.90;;;;;;5149970;27;20092;-63
2022/08/26 08:09:24;;;;;;;7.70;2.83;;;23.40;99.90;;;;;;5149145;27;20474;-64
2022/08/26 08:11:51;;;;;;;9.60;3.42;;;23.40;99.90;;;;;;5128297;27;20051;-64
2022/08/26 08:14:19;;;;;;;11.23;2.50;;;23.60;99.90;;;;;;5129490;27;20414;-64
2022/08/26 08:16:46;;;;;;;7.70;2.80;;;23.80;99.90;;;;;;5144744;27;20091;-63
2022/08/26 08:19:13;;;;;;;9.88;2.95;;;23.90;99.90;;;;;;5121280;27;20133;-64
2022/08/26 08:21:40;;;;;;;7.38;2.15;;;23.80;99.90;;;;;;5145099;27;20047;-64
2022/08/26 08:24:08;;;;;;;7.78;2.28;;;23.70;99.90;;;;;;5146500;27;20558;-63
2022/08/26 08:26:37;;;;;;;22.65;4.53;;;23.60;99.90;;;;;;5147311;27;20066;-64
2022/08/26 08:29:04;;;;;;;11.82;2.75;;;23.40;99.90;;;;;;5128574;27;20043;-64
2022/08/26 08:31:33;;;;;;;10.70;2.40;;;23.20;99.90;;;;;;5128584;27;20051;-64
2022/08/26 08:34:00;;;;;;;9.98;2.85;;;23.10;99.90;;;;;;5128114;27;20051;-64
2022/08/26 08:36:28;;;;;;;8.45;2.28;;;23.10;99.90;;;;;;5145288;27;20042;-64
2022/08/26 08:38:55;;;;;;;13.50;3.22;;;23.00;99.90;;;;;;5129840;27;20050;-63
2022/08/26 08:41:48;;;;;;;8.18;2.20;;;22.90;99.90;;;;;;5131121;27;20101;-63
2022/08/26 08:44:19;;;;;;;5.22;2.17;;;22.90;99.90;;;;;;5147581;27;20150;-63
2022/08/26 08:46:48;;;;;;;12.60;2.75;;;22.90;99.90;;;;;;5124447;27;20260;-64
2022/08/26 08:49:16;;;;;;;5.35;1.88;;;22.90;99.90;;;;;;5150484;27;20542;-63
2022/08/26 08:51:49;;;;;;;7.22;2.05;;;22.90;99.90;;;;;;5146028;27;20047;-63
2022/08/26 08:54:16;;;;;;;5.53;1.98;;;22.90;99.90;;;;;;5146807;27;20050;-64
2022/08/26 08:56:51;;;;;;;7.75;2.22;;;22.90;99.90;;;;;;5129022;27;20479;-64
2022/08/26 08:59:21;;;;;;;12.27;2.10;;;22.80;99.90;;;;;;5147528;27;20043;-65
2022/08/26 09:02:05;;;;;;;9.23;2.17;;;22.90;99.90;;;;;;5122902;27;20410;-63
2022/08/26 09:04:53;;;;;;;11.18;2.55;;;22.90;99.90;;;;;;5131170;27;20051;-64
2022/08/26 09:07:24;;;;;;;7.85;2.30;;;22.90;99.90;;;;;;5141592;27;20079;-64
2022/08/26 09:09:56;;;;;;;7.32;2.17;;;22.90;99.90;;;;;;5148037;27;20098;-63
2022/08/26 09:12:26;;;;;;;6.75;2.10;;;22.80;99.90;;;;;;5138835;27;20053;-65
2022/08/26 09:14:58;;;;;;;8.88;2.28;;;22.80;99.90;;;;;;5142955;27;20050;-64
2022/08/26 09:17:35;;;;;;;9.27;2.55;;;22.70;99.90;;;;;;5126117;27;20047;-63
2022/08/26 09:20:12;;;;;;;8.43;2.50;;;22.70;99.90;;;;;;5142602;27;20043;-63
2022/08/26 09:22:40;;;;;;;7.43;2.58;;;22.70;99.90;;;;;;5142937;27;20074;-64
2022/08/26 09:25:11;;;;;;;9.93;2.90;;;22.80;99.90;;;;;;5147879;27;20035;-64
2022/08/26 09:27:43;;;;;;;8.48;2.38;;;22.90;99.90;;;;;;5144083;27;20100;-63
2022/08/26 09:30:13;;;;;;;12.95;2.97;;;23.00;99.90;;;;;;5119549;27;20043;-63
2022/08/26 09:32:40;;;;;;;6.93;2.05;;;23.10;99.90;;;;;;5145014;27;20409;-64
2022/08/26 09:35:10;;;;;;;8.95;2.15;;;23.30;99.90;;;;;;5126761;27;20474;-64
2022/08/26 09:37:41;;;;;;;7.10;2.20;;;23.40;99.90;;;;;;5127695;27;20047;-64
2022/08/26 09:40:17;;;;;;;12.70;2.63;;;23.50;99.90;;;;;;5151269;27;20561;-64
2022/08/26 09:42:45;;;;;;;4.93;1.77;;;23.70;99.90;;;;;;5146530;27;20046;-64
2022/08/26 09:45:12;;;;;;;7.55;2.35;;;23.90;99.90;;;;;;5147175;27;20459;-64
2022/08/26 09:47:51;;;;;;;9.63;2.20;;;24.10;99.90;;;;;;5144415;27;20103;-65
2022/08/26 09:50:25;;;;;;;8.95;2.70;;;24.20;99.90;;;;;;5124250;27;20051;-64
2022/08/26 09:53:05;;;;;;;10.68;2.25;;;24.10;99.90;;;;;;5149245;27;20443;-64
2022/08/26 09:55:32;;;;;;;7.55;2.67;;;24.10;99.90;;;;;;5141473;27;20050;-65
2022/08/26 09:58:00;;;;;;;7.07;2.78;;;24.10;99.90;;;;;;5151240;27;20083;-64
2022/08/26 10:00:33;;;;;;;9.50;2.47;;;24.00;99.90;;;;;;5147591;27;20055;-64
2022/08/26 10:03:02;;;;;;;11.32;2.60;;;24.00;99.90;;;;;;5146993;27;20350;-64
2022/08/26 10:05:41;;;;;;;8.80;3.03;;;23.80;99.90;;;;;;5129891;27;20091;-64
2022/08/26 10:08:21;;;;;;;7.93;2.17;;;23.80;99.90;;;;;;5124496;27;20081;-63
2022/08/26 10:10:49;;;;;;;6.68;1.98;;;23.80;99.90;;;;;;5142952;27;20096;-63
2022/08/26 10:13:23;;;;;;;8.38;1.85;;;23.60;99.90;;;;;;5125753;27;20055;-63
2022/08/26 10:15:57;;;;;;;14.43;2.63;;;23.60;99.90;;;;;;5122094;27;20082;-64
2022/08/26 10:18:29;;;;;;;11.50;2.15;;;23.50;99.90;;;;;;5120772;27;20074;-64
2022/08/26 10:21:02;;;;;;;6.72;1.90;;;23.40;99.90;;;;;;5143672;27;20035;-63
2022/08/26 10:23:34;;;;;;;8.98;1.95;;;23.30;99.90;;;;;;5146433;27;20126;-64
2022/08/26 10:26:07;;;;;;;11.23;2.65;;;23.40;99.90;;;;;;5145080;27;20050;-64
2022/08/26 10:28:40;;;;;;;7.60;1.98;;;23.30;99.90;;;;;;5139951;27;20096;-64
2022/08/26 10:31:18;;;;;;;7.90;2.25;;;23.30;99.90;;;;;;5150077;27;20463;-63
2022/08/26 10:33:45;;;;;;;7.93;2.45;;;23.30;99.90;;;;;;5120930;27;20070;-63
2022/08/26 10:39:01;;;;;;;4.60;1.55;;;23.20;99.90;;;;;;5141630;27;20387;-63
2022/08/26 10:41:33;;;;;;;10.00;2.15;;;23.30;99.90;;;;;;5148380;27;20482;-64
2022/08/26 10:44:05;;;;;;;6.93;2.03;;;23.40;99.90;;;;;;5124888;27;20098;-64
2022/08/26 10:46:38;;;;;;;8.50;2.00;;;23.30;99.90;;;;;;5125756;27;20043;-63
2022/08/26 10:49:10;;;;;;;9.40;1.92;;;23.30;99.90;;;;;;5126645;27;20508;-63
2022/08/26 10:51:46;;;;;;;6.03;1.90;;;23.30;99.90;;;;;;5122138;27;20050;-64
2022/08/26 10:54:20;;;;;;;6.60;2.20;;;23.30;99.90;;;;;;5132921;27;20039;-64
2022/08/26 10:56:54;;;;;;;10.68;2.38;;;23.10;99.90;;;;;;5139270;27;20051;-64
2022/08/26 10:59:38;;;;;;;8.18;2.10;;;23.20;99.90;;;;;;5118642;27;20174;-64
2022/08/26 11:02:11;;;;;;;7.93;1.92;;;23.20;99.90;;;;;;5115554;27;20055;-64
2022/08/26 11:04:44;;;;;;;9.02;1.98;;;23.10;99.90;;;;;;5145077;27;20047;-64
2022/08/26 11:07:41;;;;;;;9.68;2.30;;;23.30;99.90;;;;;;5119068;27;20051;-64
2022/08/26 11:10:14;;;;;;;10.18;2.40;;;23.30;99.90;;;;;;5123251;27;20212;-64
2022/08/26 11:12:57;;;;;;;7.50;2.53;;;23.40;99.90;;;;;;5142840;27;20050;-64
2022/08/26 11:16:09;;;;;;;8.13;2.25;;;23.40;99.90;;;;;;5123427;27;20047;-65
2022/08/26 11:18:47;;;;;;;8.57;2.60;;;23.40;99.90;;;;;;5135843;27;20042;-64
2022/08/26 11:21:52;;;;;;;8.02;2.38;;;23.20;99.90;;;;;;5142116;27;20401;-64
2022/08/26 11:24:46;;;;;;;12.00;2.63;;;23.20;99.90;;;;;;5116774;27;20444;-64
2022/08/26 11:28:01;;;;;;;8.98;2.58;;;23.00;99.90;;;;;;5121703;27;20126;-63
2022/08/26 11:30:44;;;;;;;8.43;3.08;;;22.80;99.90;;;;;;5125897;27;20076;-64
2022/08/26 11:33:31;;;;;;;5.00;2.25;;;22.70;99.90;;;;;;5132054;27;20495;-64
2022/08/26 11:35:59;;;;;;;7.28;3.25;;;22.60;99.90;;;;;;5151535;27;20047;-64
2022/08/26 11:38:29;;;;;;;6.90;2.67;;;22.50;99.90;;;;;;5147978;27;20442;-64
2022/08/26 11:41:06;;;;;;;9.30;2.55;;;22.40;99.90;;;;;;5151278;27;20085;-64
2022/08/26 11:43:34;;;;;;;7.93;2.30;;;22.30;99.90;;;;;;5129287;27;20051;-64
2022/08/26 11:46:03;;;;;;;6.75;2.67;;;22.30;99.90;;;;;;5145610;27;20122;-63
2022/08/26 11:48:32;;;;;;;6.55;2.10;;;22.20;99.90;;;;;;5145215;27;20493;-64
2022/08/26 11:51:03;;;;;;;8.48;2.60;;;22.20;99.90;;;;;;5130141;27;20051;-63
2022/08/26 11:53:32;;;;;;;8.93;2.58;;;22.20;99.90;;;;;;5145004;27;20081;-64
2022/08/26 11:56:01;;;;;;;8.85;2.40;;;22.30;99.90;;;;;;5147498;27;20051;-63
2022/08/26 11:58:29;;;;;;;10.52;2.90;;;22.30;99.90;;;;;;5124572;27;20626;-64
2022/08/26 12:00:59;;;;;;;8.30;2.30;;;22.50;99.90;;;;;;5151021;27;20043;-64
2022/08/26 12:03:35;;;;;;;10.20;2.58;;;22.60;99.90;;;;;;5126172;27;20050;-64
2022/08/26 12:06:12;;;;;;;11.82;3.10;;;22.70;99.90;;;;;;5129037;27;20047;-65
2022/08/26 12:08:42;;;;;;;14.93;3.75;;;22.80;99.90;;;;;;5126489;27;20409;-64
2022/08/26 12:11:13;;;;;;;9.82;2.53;;;22.80;99.90;;;;;;5145408;27;20049;-63
2022/08/26 12:13:41;;;;;;;6.63;2.55;;;22.80;99.90;;;;;;5126953;27;20046;-64
2022/08/26 12:16:09;;;;;;;7.95;1.80;;;22.80;99.90;;;;;;5128822;27;20058;-64
2022/08/26 12:18:38;;;;;;;8.88;1.70;;;23.00;99.90;;;;;;5148810;27;20131;-64
2022/08/26 12:21:14;;;;;;;8.73;1.98;;;23.10;99.90;;;;;;5145579;27;20046;-63
2022/08/26 12:23:45;;;;;;;8.48;1.92;;;23.40;99.90;;;;;;5122043;27;20050;-65
2022/08/26 12:26:14;;;;;;;;;;;23.40;99.90;;;;;;5130503;27;20051;-64
2022/08/26 12:28:45;;;;;;;5.82;1.73;;;23.50;99.90;;;;;;5151638;27;19976;-64
2022/08/26 12:31:21;;;;;;;6.32;1.40;;;23.50;99.90;;;;;;5124001;27;20073;-65
2022/08/26 12:33:49;;;;;;;5.80;1.67;;;23.40;99.90;;;;;;5125123;27;20486;-64
2022/08/26 12:36:22;;;;;;;7.43;1.80;;;23.30;99.90;;;;;;5146406;27;20210;-63
2022/08/26 12:38:49;;;;;;;5.38;1.67;;;23.30;99.90;;;;;;5124369;27;20483;-64
2022/08/26 12:41:37;;;;;;;6.55;1.33;;;23.30;99.90;;;;;;5123535;27;20107;-64
2022/08/26 12:44:04;;;;;;;6.43;1.63;;;23.20;99.90;;;;;;5145072;27;20122;-64
2022/08/26 12:46:31;;;;;;;8.40;1.70;;;23.20;99.90;;;;;;5125329;27;20055;-65
2022/08/26 12:49:00;;;;;;;7.55;1.45;;;23.10;99.90;;;;;;5128288;27;20051;-64
2022/08/26 12:51:30;;;;;;;6.80;1.65;;;23.10;99.90;;;;;;5143470;27;20047;-64
2022/08/26 12:53:58;;;;;;;4.90;1.70;;;23.10;99.90;;;;;;5134142;27;20046;-64
2022/08/26 12:56:38;;;;;;;6.82;2.60;;;23.00;99.90;;;;;;5149519;27;20042;-64
2022/08/26 12:59:18;;;;;;;;;;;22.80;99.90;;;;;;5146438;27;20497;-64
2022/08/26 13:01:45;;;;;;;5.57;1.90;;;22.70;99.90;;;;;;5119282;27;19965;-64